Longview, WA

10:59 PM PDT on August 30, 2016 (GMT -0700)
| | Change Station

Elev -9999 ft 0.00 °N, 0.00 °E | Updated

Mostly Cloudy
Mostly Cloudy
59 °F
Feels Like 59 °F
N
1
Wind Variable Wind from SSE
Gusts mph

Today
High -- | Low -- °F
--% Chance of Precip.
Yesterday
High -- | Low -- °F
Precip. -- in
Pressure 30.01 in
Visibility 10.0 miles
Clouds Clear
Dew Point 56 °F
Humidity 90%
Rainfall --
Snow Depth Not available.
6:30 AM 7:52 PM
Waning Crescent, 1% visible
METAR KKLS 310556Z AUTO 12003KT 10SM CLR 17/12 A3000 RMK AO2 SLP163 T01670122 10217 20161 50009
Pressure 30.01 in
Visibility 10.0 miles
Clouds Clear
Dew Point 56 °F
Humidity 90%
Rainfall --
Snow Depth Not available.
6:30 AM 7:52 PM
Waning Crescent, 1% visible
METAR KKLS 310556Z AUTO 12003KT 10SM CLR 17/12 A3000 RMK AO2 SLP163 T01670122 10217 20161 50009

10-Day Weather Forecast

Almanac

Astronomy

Aug. 30, 2016 Rise Set
Actual Time
Civil Twilight
Nautical Twilight
Astronomical Twilight
Moon
Length of Visible Light
Length of Day
Tomorrow will be .
, % of the Moon is Illuminated

Today's Extremes

State Highs State Lows

Community

WunderPhotos

Upload Photos

1,936,040 photos uploaded!

WunderBlog® & News

Nearby

Air Quality

  Air Quality AQ Index Pollutant
Not available.

Snow Depth

Station Depth Elevation

Earthquake Activity

City Distance Mag. Time & Date
Minimum magnitude displayed is 2.5.

Coastal Water Temperatures

Place Temperature

Stations

Nearby Weather Stations

Station Location Temp. Windchill Dew Point Humidity Wind Precip. Elev Updated Type
                   

Watches & Warnings

There are currently no watches in effect.